Time;durP1;ratioP1;P1;durP2;ratioP2;P2;SDS_P1;SDS_P2;PMS_P1;PMS_P2;Temp;Humidity;BMP_temperature;BMP_pressure;BME280_temperature;BME280_humidity;BME280_pressure;Samples;Min_cycle;Max_cycle;Signal;HPM_P1;HPM_P2
2022/01/12 00:02:09;;;;;;;67.32;36.83;;;3.70;99.90;;;;;;5083988;28;20055;-75
2022/01/12 00:04:34;;;;;;;73.30;37.22;;;3.70;99.90;;;;;;5083728;28;20113;-75
2022/01/12 00:07:00;;;;;;;73.93;39.25;;;3.80;99.90;;;;;;5088312;28;20479;-75
2022/01/12 00:09:26;;;;;;;67.97;38.00;;;3.70;99.90;;;;;;5085856;28;20094;-75
2022/01/12 00:11:51;;;;;;;82.22;39.00;;;3.80;99.90;;;;;;5085304;28;20047;-75
2022/01/12 00:14:17;;;;;;;94.63;40.05;;;3.80;99.90;;;;;;5086880;28;20052;-75
2022/01/12 00:16:47;;;;;;;82.75;39.25;;;3.80;99.90;;;;;;5085730;28;20036;-75
2022/01/12 00:19:13;;;;;;;96.78;41.63;;;3.80;99.90;;;;;;5088308;28;20073;-75
2022/01/12 00:21:38;;;;;;;93.50;41.40;;;3.80;99.90;;;;;;5086222;28;20112;-75
2022/01/12 00:24:05;;;;;;;76.18;39.47;;;3.70;99.90;;;;;;5084107;28;20057;-75
2022/01/12 00:34:25;;;;;;;124.07;46.67;;;3.80;99.90;;;;;;5084185;28;20477;-75
2022/01/12 00:36:51;;;;;;;117.28;43.28;;;3.80;99.90;;;;;;5118599;27;20131;-75
2022/01/12 00:39:17;;;;;;;101.50;44.65;;;3.80;99.90;;;;;;5080083;28;20078;-75
2022/01/12 00:41:43;;;;;;;111.15;43.97;;;3.80;99.90;;;;;;5084383;28;20056;-75
2022/01/12 00:44:10;;;;;;;119.35;46.28;;;3.80;99.90;;;;;;5081771;28;20035;-75
2022/01/12 00:46:38;;;;;;;114.93;45.08;;;3.80;99.90;;;;;;5083584;28;20521;-75
2022/01/12 00:49:04;;;;;;;127.93;46.17;;;3.80;99.90;;;;;;5084513;28;20036;-75
2022/01/12 00:51:32;;;;;;;117.78;46.22;;;3.80;99.90;;;;;;5086269;28;20127;-75
2022/01/12 00:54:01;;;;;;;103.75;45.03;;;3.80;99.90;;;;;;5080644;28;20055;-75
2022/01/12 00:56:27;;;;;;;123.70;46.40;;;3.80;99.90;;;;;;5087181;28;20035;-75
2022/01/12 00:58:53;;;;;;;147.23;47.42;;;3.80;99.90;;;;;;5087862;28;20097;-75
2022/01/12 01:01:20;;;;;;;101.78;44.92;;;3.80;99.90;;;;;;5084754;28;20047;-76
2022/01/12 01:03:49;;;;;;;103.22;44.17;;;3.80;99.90;;;;;;5085903;28;20032;-75
2022/01/12 01:06:17;;;;;;;123.70;46.55;;;3.80;99.90;;;;;;5083904;28;20130;-75
2022/01/12 01:08:48;;;;;;;111.07;44.40;;;3.80;99.90;;;;;;5100249;28;20068;-75
2022/01/12 01:11:14;;;;;;;110.60;44.47;;;3.80;99.90;;;;;;5085815;28;20079;-75
2022/01/12 01:27:18;;;;;;;111.18;43.75;;;3.80;99.90;;;;;;5082096;28;20035;-75
2022/01/12 01:29:44;;;;;;;134.40;47.15;;;3.80;99.90;;;;;;5086878;28;20041;-75
2022/01/12 01:32:11;;;;;;;125.03;44.92;;;3.80;99.90;;;;;;5082013;28;20040;-75
2022/01/12 01:34:43;;;;;;;103.80;42.90;;;3.80;99.90;;;;;;5114702;27;21424;-75
2022/01/12 01:37:22;;;;;;;123.63;45.50;;;3.90;99.90;;;;;;5080782;28;20054;-75
2022/01/12 01:39:49;;;;;;;107.88;46.53;;;3.80;99.90;;;;;;5085327;28;20043;-75
2022/01/12 01:42:27;;;;;;;115.20;43.58;;;3.90;99.90;;;;;;5118324;27;20040;-75
2022/01/12 01:55:35;;;;;;;133.10;46.28;;;3.90;99.90;;;;;;5086932;28;21004;-75
2022/01/12 01:58:01;;;;;;;106.97;43.85;;;4.00;99.90;;;;;;5084281;28;20046;-75
2022/01/12 02:00:28;;;;;;;104.93;42.92;;;4.00;99.90;;;;;;5088987;28;20043;-75
2022/01/12 02:02:56;;;;;;;125.18;46.42;;;4.00;99.90;;;;;;5089405;28;20044;-75
2022/01/12 02:05:22;;;;;;;126.60;44.83;;;3.90;99.90;;;;;;5086542;28;20509;-75
2022/01/12 02:07:48;;;;;;;110.00;44.75;;;4.00;99.90;;;;;;5082549;28;20068;-75
2022/01/12 02:10:14;;;;;;;103.38;42.97;;;4.00;99.90;;;;;;5086070;28;20051;-75
2022/01/12 02:12:40;;;;;;;122.75;44.78;;;4.00;99.90;;;;;;5088625;28;20037;-75
2022/01/12 02:15:15;;;;;;;143.38;46.08;;;4.10;99.90;;;;;;5087139;28;20474;-75
2022/01/12 02:17:55;;;;;;;108.87;44.73;;;4.00;99.90;;;;;;5090060;28;20031;-75
2022/01/12 02:37:08;;;;;;;105.90;42.33;;;4.10;99.90;;;;;;5122457;27;20048;-74
2022/01/12 02:39:54;;;;;;;100.35;42.83;;;4.10;99.90;;;;;;5087280;28;20040;-75
2022/01/12 02:42:19;;;;;;;119.22;42.95;;;4.10;99.90;;;;;;5087760;28;20036;-75
2022/01/12 02:55:44;;;;;;;121.53;43.03;;;4.20;99.90;;;;;;5085993;28;20182;-75
2022/01/12 02:58:10;;;;;;;198.02;47.17;;;4.20;99.90;;;;;;5086753;28;20075;-75
2022/01/12 03:01:00;;;;;;;168.20;46.67;;;4.10;99.90;;;;;;5090104;28;20032;-75
2022/01/12 03:03:24;;;;;;;135.68;45.42;;;4.10;99.90;;;;;;5084877;28;20139;-75
2022/01/12 03:06:02;;;;;;;233.43;51.22;;;4.10;99.90;;;;;;5087065;28;20044;-75
2022/01/12 03:08:29;;;;;;;103.18;41.80;;;4.10;99.90;;;;;;5088680;28;20099;-75
2022/01/12 03:10:55;;;;;;;107.75;42.92;;;4.10;99.90;;;;;;5086495;28;20502;-75
2022/01/12 03:13:21;;;;;;;200.15;47.13;;;4.10;99.90;;;;;;5086628;28;20089;-75
2022/01/12 03:15:48;;;;;;;130.38;45.03;;;4.10;99.90;;;;;;5100266;27;20494;-75
2022/01/12 03:18:15;;;;;;;112.22;42.55;;;4.10;99.90;;;;;;5085322;28;20078;-75
2022/01/12 03:20:42;;;;;;;155.73;44.25;;;4.20;99.90;;;;;;5085460;28;20145;-75
2022/01/12 03:23:07;;;;;;;112.75;44.30;;;4.20;99.90;;;;;;5116210;27;20513;-75
2022/01/12 03:25:33;;;;;;;153.82;46.08;;;4.10;99.90;;;;;;5089365;28;20040;-74
2022/01/12 03:28:01;;;;;;;109.20;41.97;;;4.20;99.90;;;;;;5114983;27;20051;-75
2022/01/12 03:30:34;;;;;;;116.57;42.67;;;4.20;99.90;;;;;;5084118;28;20063;-75
2022/01/12 03:33:10;;;;;;;124.97;44.75;;;4.20;99.90;;;;;;5088556;28;21219;-75
2022/01/12 03:35:49;;;;;;;118.95;42.17;;;4.30;99.90;;;;;;5088167;28;20044;-75
2022/01/12 03:38:22;;;;;;;111.97;41.17;;;4.20;99.90;;;;;;5087047;28;20040;-75
2022/01/12 03:40:49;;;;;;;105.15;42.70;;;4.20;99.90;;;;;;5083919;28;20067;-75
2022/01/12 03:43:15;;;;;;;106.18;41.53;;;4.30;99.90;;;;;;5084656;28;20043;-75
2022/01/12 03:45:41;;;;;;;112.35;44.58;;;4.20;99.90;;;;;;5082541;28;20037;-75
2022/01/12 03:48:06;;;;;;;170.68;43.85;;;4.20;99.90;;;;;;5086438;28;20054;-75
2022/01/12 03:50:32;;;;;;;137.73;44.28;;;4.20;99.90;;;;;;5086505;28;20409;-75
2022/01/12 03:52:58;;;;;;;126.50;43.13;;;4.20;99.90;;;;;;5085456;28;20043;-75
2022/01/12 03:55:23;;;;;;;186.75;46.30;;;4.20;99.90;;;;;;5089633;28;20039;-75
2022/01/12 03:57:49;;;;;;;135.30;43.80;;;4.20;99.90;;;;;;5087177;28;20127;-75
2022/01/12 04:00:15;;;;;;;119.53;43.58;;;4.20;99.90;;;;;;5090875;28;20039;-75
2022/01/12 04:02:41;;;;;;;143.48;43.95;;;4.20;99.90;;;;;;5088759;28;20039;-75
2022/01/12 04:05:25;;;;;;;116.78;44.40;;;4.20;99.90;;;;;;5086240;28;20028;-75
2022/01/12 04:10:35;;;;;;;129.07;44.88;;;4.20;99.90;;;;;;5086936;28;20126;-75
2022/01/12 04:13:01;;;;;;;117.63;43.78;;;4.10;99.90;;;;;;5091096;28;20132;-75
2022/01/12 04:15:27;;;;;;;128.52;45.25;;;4.20;99.90;;;;;;5087663;28;20035;-75
2022/01/12 04:17:53;;;;;;;147.13;42.38;;;4.20;99.90;;;;;;5112849;27;20495;-75
2022/01/12 04:20:19;;;;;;;103.95;40.95;;;4.20;99.90;;;;;;5083629;28;20043;-75
2022/01/12 04:25:28;;;;;;;117.32;42.78;;;4.20;99.90;;;;;;5088504;28;20036;-75
2022/01/12 04:27:54;;;;;;;105.28;40.95;;;4.20;99.90;;;;;;5086969;28;20036;-75
2022/01/12 04:30:20;;;;;;;100.15;39.95;;;4.20;99.90;;;;;;5090006;28;20108;-75
2022/01/12 04:32:46;;;;;;;95.28;38.80;;;4.20;99.90;;;;;;5088992;28;20043;-75
2022/01/12 04:35:14;;;;;;;91.85;37.80;;;4.10;99.90;;;;;;5081466;28;20044;-75
2022/01/12 04:37:41;;;;;;;85.82;37.38;;;4.10;99.90;;;;;;5089338;28;20518;-75
2022/01/12 04:40:08;;;;;;;100.43;39.92;;;4.10;99.90;;;;;;5090375;28;20050;-75
2022/01/12 04:42:35;;;;;;;101.50;38.10;;;4.00;99.90;;;;;;5111301;27;20039;-75
2022/01/12 04:45:15;;;;;;;86.28;36.70;;;3.90;99.90;;;;;;5090855;28;20032;-75
2022/01/12 04:48:00;;;;;;;81.45;36.40;;;3.90;99.90;;;;;;5096091;28;20428;-75
2022/01/12 04:50:29;;;;;;;81.00;33.80;;;3.80;99.90;;;;;;5087220;28;20040;-75
2022/01/12 04:52:55;;;;;;;74.80;33.92;;;3.80;99.90;;;;;;5112045;27;20533;-75
2022/01/12 04:55:21;;;;;;;78.35;34.65;;;3.70;99.90;;;;;;5087091;28;20448;-73
2022/01/12 04:57:47;;;;;;;163.65;35.92;;;3.70;99.90;;;;;;5091074;28;20031;-74
2022/01/12 05:00:18;;;;;;;89.10;33.67;;;3.60;99.90;;;;;;5090237;28;20051;-74
2022/01/12 05:08:36;;;;;;;262.90;31.27;;;3.40;99.90;;;;;;5113073;27;20044;-74
2022/01/12 05:13:48;;;;;;;182.32;30.58;;;3.30;99.90;;;;;;5088868;28;20118;-74
2022/01/12 05:16:15;;;;;;;201.57;30.15;;;3.30;99.90;;;;;;5082062;28;20518;-74
2022/01/12 05:18:42;;;;;;;188.65;29.50;;;3.20;99.90;;;;;;5081301;28;20073;-74
2022/01/12 05:21:09;;;;;;;335.52;31.98;;;3.20;99.90;;;;;;5082759;28;20522;-74
2022/01/12 05:23:34;;;;;;;477.30;33.85;;;3.20;99.90;;;;;;5114939;27;20085;-74
2022/01/12 05:26:00;;;;;;;484.00;32.15;;;3.30;99.90;;;;;;5115486;27;20044;-74
2022/01/12 05:28:27;;;;;;;562.80;34.47;;;3.20;99.90;;;;;;5092046;28;20040;-74
2022/01/12 05:30:54;;;;;;;538.97;33.17;;;3.20;99.90;;;;;;5093626;28;20050;-74
2022/01/12 05:33:22;;;;;;;426.02;31.83;;;3.10;99.90;;;;;;5094066;28;20125;-74
2022/01/12 05:35:49;;;;;;;480.52;31.40;;;3.10;99.90;;;;;;5092693;28;20080;-74
2022/01/12 05:38:15;;;;;;;461.08;30.20;;;3.10;99.90;;;;;;5085142;28;20058;-74
2022/01/12 05:40:46;;;;;;;481.30;30.75;;;3.10;99.90;;;;;;5066269;28;20041;-74
2022/01/12 05:43:23;;;;;;;479.05;29.98;;;3.10;99.90;;;;;;5111990;27;20093;-74
2022/01/12 05:45:50;;;;;;;463.05;27.55;;;3.00;99.90;;;;;;5081101;28;20048;-74
2022/01/12 05:50:42;;;;;;;337.00;23.02;;;2.90;99.90;;;;;;5115142;27;20048;-74
2022/01/12 05:53:09;;;;;;;364.42;21.30;;;2.80;99.90;;;;;;5090083;28;20037;-74
2022/01/12 05:55:34;;;;;;;402.60;21.02;;;2.70;99.90;;;;;;5126361;27;20044;-74
2022/01/12 05:58:00;;;;;;;303.98;19.13;;;2.60;99.90;;;;;;5085411;28;20643;-74
2022/01/12 06:00:28;;;;;;;331.10;20.70;;;2.60;99.90;;;;;;5080988;28;20149;-74
2022/01/12 06:02:54;;;;;;;357.83;21.23;;;2.50;99.90;;;;;;5113253;27;20047;-74
2022/01/12 06:05:21;;;;;;;326.45;20.75;;;2.50;99.90;;;;;;5068857;28;20071;-74
2022/01/12 06:07:48;;;;;;;361.50;21.00;;;2.40;99.90;;;;;;5097460;27;20550;-74
2022/01/12 06:10:15;;;;;;;306.10;20.17;;;2.40;99.90;;;;;;5084326;28;20047;-74
2022/01/12 06:12:40;;;;;;;311.52;19.92;;;2.30;99.90;;;;;;5084191;28;20058;-74
2022/01/12 06:15:06;;;;;;;272.92;21.08;;;2.40;99.90;;;;;;5081199;28;20484;-74
2022/01/12 06:17:32;;;;;;;338.55;23.05;;;2.30;99.90;;;;;;5083613;28;20039;-74
2022/01/12 06:19:58;;;;;;;320.92;22.25;;;2.30;99.90;;;;;;5081568;28;20050;-74
2022/01/12 06:22:24;;;;;;;226.27;20.77;;;2.50;99.90;;;;;;5089267;28;20040;-74
2022/01/12 06:24:50;;;;;;;255.63;19.35;;;2.20;99.90;;;;;;5090767;28;20058;-74
2022/01/12 06:27:20;;;;;;;240.90;18.25;;;2.20;99.90;;;;;;5092113;28;20035;-74
2022/01/12 06:32:14;;;;;;;270.98;18.40;;;2.20;99.90;;;;;;5090755;28;20386;-74
2022/01/12 06:34:40;;;;;;;266.40;18.48;;;2.20;99.90;;;;;;5074213;28;20040;-74
2022/01/12 06:37:06;;;;;;;252.25;17.45;;;2.20;99.90;;;;;;5075157;28;20454;-74
2022/01/12 06:39:32;;;;;;;276.70;19.00;;;2.10;99.90;;;;;;5089438;28;20044;-74
2022/01/12 06:41:58;;;;;;;312.55;20.30;;;2.10;99.90;;;;;;5089772;28;20037;-74
2022/01/12 06:44:25;;;;;;;203.88;17.02;;;2.10;99.90;;;;;;5091442;28;20043;-74
2022/01/12 06:46:52;;;;;;;186.07;15.95;;;2.00;99.90;;;;;;5094156;28;20027;-74
2022/01/12 06:49:18;;;;;;;250.30;19.38;;;1.90;99.90;;;;;;5084544;28;20044;-74
2022/01/12 06:51:46;;;;;;;230.45;18.10;;;1.80;99.90;;;;;;5089434;28;20077;-74
2022/01/12 06:54:13;;;;;;;190.23;16.75;;;1.80;99.90;;;;;;5089644;28;20036;-74
2022/01/12 06:56:39;;;;;;;201.93;16.63;;;1.80;99.90;;;;;;5086852;28;20040;-74
2022/01/12 06:59:06;;;;;;;154.43;15.68;;;1.80;99.90;;;;;;5087613;28;20079;-74
2022/01/12 07:01:32;;;;;;;185.40;16.63;;;1.80;99.90;;;;;;5087932;28;20048;-74
2022/01/12 07:03:58;;;;;;;161.90;17.27;;;1.80;99.90;;;;;;5090420;28;20040;-74
2022/01/12 07:06:24;;;;;;;145.45;15.93;;;1.90;99.90;;;;;;5091418;28;20040;-74
2022/01/12 07:08:50;;;;;;;140.68;16.48;;;1.90;99.90;;;;;;5089038;28;20072;-74
2022/01/12 07:11:16;;;;;;;117.15;16.33;;;1.90;99.90;;;;;;5092911;28;20440;-74
2022/01/12 07:13:41;;;;;;;91.88;14.95;;;1.90;99.90;;;;;;5088901;28;20047;-74
2022/01/12 07:16:07;;;;;;;119.32;16.02;;;1.90;99.90;;;;;;5128068;27;20078;-74
2022/01/12 07:18:33;;;;;;;121.13;14.85;;;1.90;99.90;;;;;;5129087;27;20044;-74
2022/01/12 07:20:59;;;;;;;79.68;15.35;;;1.90;99.90;;;;;;5095427;28;20459;-74
2022/01/12 07:23:26;;;;;;;100.53;16.63;;;1.90;99.90;;;;;;5091154;28;20036;-74
2022/01/12 07:25:52;;;;;;;140.90;17.05;;;1.90;99.90;;;;;;5090940;28;20037;-74
2022/01/12 07:28:19;;;;;;;93.03;16.13;;;1.90;99.90;;;;;;5090518;28;20109;-74
2022/01/12 07:30:46;;;;;;;103.97;17.08;;;1.90;99.90;;;;;;5088642;28;20051;-73
2022/01/12 07:33:12;;;;;;;45.63;16.30;;;2.00;99.90;;;;;;5078669;28;20079;-74
2022/01/12 07:35:39;;;;;;;79.88;18.10;;;2.00;99.90;;;;;;5074558;28;20044;-75
2022/01/12 07:38:05;;;;;;;44.40;18.00;;;2.00;99.90;;;;;;5078837;28;20477;-75
2022/01/12 07:40:31;;;;;;;38.75;16.17;;;2.20;99.90;;;;;;5076197;28;20040;-75
2022/01/12 07:42:56;;;;;;;37.13;17.88;;;2.10;99.90;;;;;;5079097;28;20040;-75
2022/01/12 07:45:22;;;;;;;35.97;19.02;;;2.20;99.90;;;;;;5071466;28;20123;-75
2022/01/12 07:47:48;;;;;;;37.60;17.17;;;2.20;99.90;;;;;;5077900;28;20075;-75
2022/01/12 07:50:14;;;;;;;31.25;18.30;;;2.30;99.90;;;;;;5076146;28;20086;-75
2022/01/12 07:52:40;;;;;;;39.92;18.15;;;2.30;99.90;;;;;;5078667;28;20466;-75
2022/01/12 07:55:07;;;;;;;36.65;18.77;;;2.30;99.90;;;;;;5081194;28;20039;-75
2022/01/12 07:57:33;;;;;;;35.13;18.58;;;2.30;99.90;;;;;;5076364;28;20044;-75
2022/01/12 07:59:59;;;;;;;35.58;19.20;;;2.40;99.90;;;;;;5110072;27;20089;-75
2022/01/12 08:02:24;;;;;;;38.33;19.35;;;2.40;99.90;;;;;;5073808;28;20063;-75
2022/01/12 08:04:51;;;;;;;43.45;19.00;;;2.40;99.90;;;;;;5078404;28;20141;-75
2022/01/12 08:07:17;;;;;;;33.38;18.67;;;2.40;99.90;;;;;;5076668;28;20066;-75
2022/01/12 08:09:44;;;;;;;30.35;18.05;;;2.40;99.90;;;;;;5076470;28;20182;-75
2022/01/12 08:12:11;;;;;;;32.67;18.13;;;2.40;99.90;;;;;;5075711;28;20490;-75
2022/01/12 08:14:36;;;;;;;42.67;19.95;;;2.40;99.90;;;;;;5078139;28;20040;-74
2022/01/12 08:17:03;;;;;;;36.85;19.95;;;2.40;99.90;;;;;;5108791;27;20048;-75
2022/01/12 08:19:29;;;;;;;38.05;19.88;;;2.60;99.90;;;;;;5077249;28;20064;-75
2022/01/12 08:21:56;;;;;;;45.35;20.25;;;2.60;99.90;;;;;;5110112;27;20044;-75
2022/01/12 08:24:22;;;;;;;36.90;19.33;;;2.70;99.90;;;;;;5076198;28;20040;-74
2022/01/12 08:26:48;;;;;;;37.72;19.35;;;2.70;99.90;;;;;;5108998;27;20146;-75
2022/01/12 08:29:15;;;;;;;76.72;25.08;;;2.80;99.90;;;;;;5109195;27;20036;-75
2022/01/12 08:31:43;;;;;;;66.85;25.35;;;2.90;99.90;;;;;;5074340;28;20075;-75
2022/01/12 08:34:10;;;;;;;106.55;28.55;;;3.00;99.90;;;;;;5076107;28;20052;-74
2022/01/12 08:36:37;;;;;;;96.72;27.25;;;3.00;99.90;;;;;;5079056;28;20392;-75
2022/01/12 08:39:05;;;;;;;73.10;26.90;;;3.10;99.90;;;;;;5077392;28;20129;-74
2022/01/12 08:41:31;;;;;;;78.53;26.45;;;3.20;99.90;;;;;;5073474;28;20078;-74
2022/01/12 08:43:57;;;;;;;93.35;28.70;;;3.20;99.90;;;;;;5076145;28;20198;-74
2022/01/12 08:46:22;;;;;;;68.22;26.35;;;3.20;99.90;;;;;;5077818;28;20047;-75
2022/01/12 08:48:48;;;;;;;87.40;26.85;;;3.30;99.90;;;;;;5077588;28;20047;-75
2022/01/12 08:51:14;;;;;;;86.22;26.42;;;3.40;99.90;;;;;;5078010;28;20051;-75
2022/01/12 08:53:40;;;;;;;76.80;26.10;;;3.40;99.90;;;;;;5074479;28;20044;-74
2022/01/12 08:56:07;;;;;;;84.88;25.88;;;3.40;99.90;;;;;;5075706;28;20075;-74
2022/01/12 08:58:33;;;;;;;88.47;24.38;;;3.50;99.90;;;;;;5076261;28;20048;-75
2022/01/12 09:01:03;;;;;;;70.75;25.58;;;3.50;99.90;;;;;;5076785;28;20080;-75
2022/01/12 09:03:29;;;;;;;78.05;25.38;;;3.50;99.90;;;;;;5076016;28;20696;-74
2022/01/12 09:05:55;;;;;;;67.28;24.67;;;3.60;99.90;;;;;;5076651;28;20169;-75
2022/01/12 09:08:21;;;;;;;72.88;23.98;;;3.70;99.90;;;;;;5106116;27;20675;-74
2022/01/12 09:10:47;;;;;;;77.88;23.52;;;3.70;99.90;;;;;;5077474;28;20041;-75
2022/01/12 09:13:12;;;;;;;97.80;24.20;;;3.70;99.90;;;;;;5078523;28;20384;-75
2022/01/12 09:15:38;;;;;;;67.47;21.50;;;3.80;99.90;;;;;;5075971;28;20052;-75
2022/01/12 09:18:04;;;;;;;53.00;20.83;;;3.70;99.90;;;;;;5075051;28;20051;-75
2022/01/12 09:20:30;;;;;;;51.38;21.05;;;3.80;99.90;;;;;;5092259;28;20033;-75
2022/01/12 09:22:55;;;;;;;57.38;20.73;;;3.80;99.90;;;;;;5075073;28;20040;-75
2022/01/12 09:25:21;;;;;;;44.85;20.05;;;3.80;99.90;;;;;;5060022;28;20506;-75
2022/01/12 09:27:47;;;;;;;44.33;18.23;;;3.90;99.90;;;;;;5077937;28;20069;-75
2022/01/12 09:30:15;;;;;;;41.10;16.77;;;3.90;99.90;;;;;;5074194;28;20068;-74
2022/01/12 09:32:40;;;;;;;39.20;16.35;;;4.00;99.90;;;;;;5108274;27;20043;-75
2022/01/12 09:35:07;;;;;;;34.97;15.07;;;4.10;99.90;;;;;;5109093;27;20039;-75
2022/01/12 09:37:33;;;;;;;37.95;15.20;;;4.10;99.90;;;;;;5080365;28;20040;-74
2022/01/12 09:39:59;;;;;;;33.13;15.40;;;4.10;99.90;;;;;;5084085;28;20047;-74
2022/01/12 09:42:25;;;;;;;29.65;14.73;;;4.20;99.90;;;;;;5077121;28;20158;-74
2022/01/12 09:44:51;;;;;;;39.53;14.15;;;4.30;99.90;;;;;;5074815;28;20043;-74
2022/01/12 09:47:17;;;;;;;34.17;14.43;;;4.40;99.90;;;;;;5082148;28;20040;-75
2022/01/12 09:49:45;;;;;;;37.38;13.45;;;4.40;99.90;;;;;;5074194;28;20142;-75
2022/01/12 09:52:12;;;;;;;34.88;14.32;;;4.40;99.90;;;;;;5079532;28;20526;-75
2022/01/12 09:54:39;;;;;;;27.80;12.88;;;4.50;99.90;;;;;;5078571;28;20399;-75
2022/01/12 09:57:06;;;;;;;25.10;13.95;;;4.50;99.90;;;;;;5079216;28;20032;-75
2022/01/12 09:59:32;;;;;;;32.22;13.75;;;4.50;99.90;;;;;;5076796;28;20044;-74
2022/01/12 10:01:58;;;;;;;32.90;14.20;;;4.60;99.90;;;;;;5080614;28;20059;-75
2022/01/12 10:04:27;;;;;;;37.10;15.15;;;4.60;99.90;;;;;;5083392;28;20044;-75
2022/01/12 10:06:57;;;;;;;42.05;14.50;;;4.70;99.90;;;;;;5077480;28;20195;-74
2022/01/12 10:09:25;;;;;;;39.30;14.35;;;4.70;99.90;;;;;;5082895;28;20059;-74
2022/01/12 10:11:51;;;;;;;50.13;15.40;;;4.80;99.90;;;;;;5082883;28;20131;-74
2022/01/12 10:14:17;;;;;;;42.05;13.82;;;4.70;99.90;;;;;;5080088;28;20140;-75
2022/01/12 10:17:10;;;;;;;50.75;12.93;;;4.80;99.90;;;;;;5080384;28;20039;-74
2022/01/12 10:19:35;;;;;;;83.60;13.07;;;4.80;99.90;;;;;;5080960;28;20052;-74
2022/01/12 10:22:05;;;;;;;67.90;14.68;;;4.80;99.90;;;;;;5079835;28;20375;-75
2022/01/12 10:24:35;;;;;;;42.67;11.85;;;4.80;99.90;;;;;;5084162;28;20052;-75
2022/01/12 10:27:01;;;;;;;47.97;12.75;;;4.80;99.90;;;;;;5082313;28;20036;-75
2022/01/12 10:29:31;;;;;;;36.58;11.57;;;4.80;99.90;;;;;;5078294;28;20039;-75
2022/01/12 10:32:02;;;;;;;58.63;12.25;;;4.80;99.90;;;;;;5082665;28;20115;-75
2022/01/12 10:34:35;;;;;;;47.55;10.40;;;4.90;99.90;;;;;;5064101;28;20086;-75
2022/01/12 10:37:00;;;;;;;62.67;10.25;;;4.90;99.90;;;;;;5081678;28;20178;-75
2022/01/12 10:39:27;;;;;;;58.88;10.40;;;4.90;99.90;;;;;;5077852;28;20155;-74
2022/01/12 10:42:22;;;;;;;67.22;10.93;;;5.00;99.90;;;;;;5082074;28;20043;-75
2022/01/12 10:44:50;;;;;;;59.40;10.85;;;4.90;99.90;;;;;;5079250;28;20093;-75
2022/01/12 10:47:29;;;;;;;87.75;12.80;;;4.90;99.90;;;;;;5078557;28;20036;-75
2022/01/12 10:49:54;;;;;;;72.30;12.73;;;5.00;99.90;;;;;;5079597;28;20497;-74
2022/01/12 10:52:31;;;;;;;61.60;11.27;;;5.00;99.90;;;;;;5081418;28;20058;-75
2022/01/12 10:54:59;;;;;;;55.85;11.95;;;5.00;99.90;;;;;;5080691;28;20036;-75
2022/01/12 10:57:32;;;;;;;44.03;12.60;;;5.00;99.90;;;;;;5081399;28;20120;-75
2022/01/12 11:00:09;;;;;;;84.38;13.63;;;5.10;99.90;;;;;;5066887;28;20055;-75
2022/01/12 11:02:38;;;;;;;71.47;13.65;;;5.10;99.90;;;;;;5069259;28;20059;-75
2022/01/12 11:05:07;;;;;;;48.88;11.57;;;5.10;99.90;;;;;;5115581;27;20123;-75
2022/01/12 11:07:34;;;;;;;32.85;11.52;;;5.10;99.90;;;;;;5081882;28;20051;-75
2022/01/12 11:10:02;;;;;;;58.92;11.60;;;5.10;99.90;;;;;;5078745;28;20052;-75
2022/01/12 11:12:28;;;;;;;35.85;11.70;;;5.10;99.90;;;;;;5097242;28;20965;-75
2022/01/12 11:14:54;;;;;;;48.33;11.35;;;5.20;99.90;;;;;;5111169;27;20079;-75
2022/01/12 11:17:20;;;;;;;39.65;10.60;;;5.10;99.90;;;;;;5082146;28;20040;-75
2022/01/12 11:20:18;;;;;;;55.42;10.60;;;5.10;99.90;;;;;;5083297;28;20068;-75
2022/01/12 11:22:43;;;;;;;43.95;10.88;;;5.20;99.90;;;;;;5078376;28;20048;-75
2022/01/12 11:25:21;;;;;;;42.42;10.88;;;5.10;99.90;;;;;;5081583;28;20139;-75
2022/01/12 11:27:51;;;;;;;50.83;10.38;;;5.30;99.90;;;;;;5077958;28;20125;-75
2022/01/12 11:30:19;;;;;;;50.60;9.45;;;5.30;99.90;;;;;;5081115;28;20043;-75
2022/01/12 11:32:56;;;;;;;40.38;9.70;;;5.30;99.90;;;;;;5081413;28;20068;-75
2022/01/12 11:35:32;;;;;;;66.80;10.38;;;5.30;99.90;;;;;;5078914;28;20166;-75
2022/01/12 11:37:59;;;;;;;47.88;8.65;;;5.30;99.90;;;;;;5082684;28;20055;-75
2022/01/12 11:40:54;;;;;;;42.88;7.90;;;5.30;99.90;;;;;;5079057;28;20123;-74
2022/01/12 11:43:31;;;;;;;40.00;9.77;;;5.30;99.90;;;;;;5078271;28;20062;-75
2022/01/12 11:46:17;;;;;;;33.28;9.30;;;5.30;99.90;;;;;;5086156;28;20040;-74
2022/01/12 11:48:49;;;;;;;34.75;10.00;;;5.30;99.90;;;;;;5078915;28;20474;-75
2022/01/12 11:51:17;;;;;;;34.83;9.95;;;5.40;99.90;;;;;;5086671;28;20041;-75
2022/01/12 11:53:48;;;;;;;27.70;9.82;;;5.40;99.90;;;;;;5108516;27;20425;-74
2022/01/12 11:56:25;;;;;;;50.17;9.73;;;5.40;99.90;;;;;;5078801;28;20047;-74
2022/01/12 11:58:53;;;;;;;29.88;9.75;;;5.40;99.90;;;;;;5076383;28;20052;-75
2022/01/12 12:01:19;;;;;;;31.17;9.35;;;5.40;99.90;;;;;;5111420;27;20052;-75
2022/01/12 12:03:59;;;;;;;31.30;9.82;;;5.40;99.90;;;;;;5077036;28;20112;-75
2022/01/12 12:06:25;;;;;;;49.55;12.45;;;5.50;99.90;;;;;;5077612;28;20097;-75
2022/01/12 12:09:06;;;;;;;32.33;9.85;;;5.50;99.90;;;;;;5078738;28;21052;-75
2022/01/12 12:11:33;;;;;;;32.40;9.85;;;5.50;99.90;;;;;;5078233;28;20132;-75
2022/01/12 12:14:04;;;;;;;30.00;10.05;;;5.60;99.90;;;;;;5077832;28;20043;-75
2022/01/12 12:16:31;;;;;;;31.35;9.52;;;5.60;99.90;;;;;;5080255;28;20767;-75
2022/01/12 12:18:57;;;;;;;30.75;9.77;;;5.60;99.90;;;;;;5078838;28;20130;-75
2022/01/12 12:21:23;;;;;;;49.00;10.23;;;5.60;99.90;;;;;;5076729;28;20126;-75
2022/01/12 12:23:50;;;;;;;18.90;8.77;;;5.50;99.90;;;;;;5075811;28;20052;-75
2022/01/12 12:26:19;;;;;;;26.52;9.13;;;5.40;99.90;;;;;;5079399;28;20152;-74
2022/01/12 12:28:57;;;;;;;30.60;9.23;;;5.50;99.90;;;;;;5068441;28;20040;-75
2022/01/12 12:31:26;;;;;;;22.30;8.45;;;5.40;99.90;;;;;;5080302;28;20044;-75
2022/01/12 12:34:05;;;;;;;20.58;8.63;;;5.40;99.90;;;;;;5077560;28;20401;-75
2022/01/12 12:36:32;;;;;;;41.17;8.93;;;5.40;99.90;;;;;;5077491;28;20581;-75
2022/01/12 12:39:11;;;;;;;37.70;8.68;;;5.40;99.90;;;;;;5076835;28;20403;-75
2022/01/12 12:41:41;;;;;;;33.65;8.60;;;5.40;99.90;;;;;;5077141;28;20351;-75
2022/01/12 12:44:18;;;;;;;22.63;8.70;;;5.40;99.90;;;;;;5078419;28;20440;-75
2022/01/12 12:46:44;;;;;;;16.13;9.18;;;5.40;99.90;;;;;;5076479;28;20123;-75
2022/01/12 12:49:10;;;;;;;28.67;9.50;;;5.50;99.90;;;;;;5076096;28;20503;-75
2022/01/12 12:51:36;;;;;;;27.17;8.07;;;5.50;99.90;;;;;;5076816;28;20039;-75
2022/01/12 12:54:01;;;;;;;37.05;8.95;;;5.50;99.90;;;;;;5077625;28;20040;-74
2022/01/12 12:56:29;;;;;;;19.05;8.57;;;5.40;99.90;;;;;;5076031;28;20387;-74
2022/01/12 12:58:57;;;;;;;29.13;9.38;;;5.50;99.90;;;;;;5076621;28;20043;-75
2022/01/12 13:01:29;;;;;;;30.85;9.38;;;5.40;99.90;;;;;;5076171;28;20048;-75
2022/01/12 13:03:59;;;;;;;25.45;8.32;;;5.40;99.90;;;;;;5076146;28;20092;-75
2022/01/12 13:06:31;;;;;;;33.88;10.07;;;5.40;99.90;;;;;;5077427;28;20039;-74
2022/01/12 13:09:04;;;;;;;16.88;7.65;;;5.30;99.90;;;;;;5112359;27;20120;-75
2022/01/12 13:11:31;;;;;;;28.10;9.77;;;5.30;99.90;;;;;;5079622;28;20044;-74
2022/01/12 13:13:58;;;;;;;22.00;9.13;;;5.30;99.90;;;;;;5110068;27;20045;-75
2022/01/12 13:16:26;;;;;;;24.10;8.48;;;5.30;99.90;;;;;;5109783;27;20040;-75
2022/01/12 13:19:05;;;;;;;22.13;9.82;;;5.30;99.90;;;;;;5077093;28;20055;-75
2022/01/12 13:21:32;;;;;;;27.67;9.35;;;5.30;99.90;;;;;;5110201;27;20052;-75
2022/01/12 13:23:59;;;;;;;50.97;9.88;;;5.30;99.90;;;;;;5080050;28;20424;-75
2022/01/12 13:26:31;;;;;;;42.50;9.32;;;5.30;99.90;;;;;;5075591;28;20037;-74
2022/01/12 13:29:11;;;;;;;52.83;11.32;;;5.20;99.90;;;;;;5077413;28;20100;-75
2022/01/12 13:31:39;;;;;;;26.27;10.85;;;5.20;99.90;;;;;;5077365;28;20047;-75
2022/01/12 13:34:05;;;;;;;34.03;10.75;;;5.20;99.90;;;;;;5080031;28;20054;-75
2022/01/12 13:36:33;;;;;;;35.97;10.75;;;5.20;99.90;;;;;;5080365;28;20100;-75
2022/01/12 13:39:08;;;;;;;27.27;10.27;;;5.20;99.90;;;;;;5116152;27;20040;-75
2022/01/12 13:41:42;;;;;;;27.27;10.85;;;5.20;99.90;;;;;;5079802;28;20398;-75
2022/01/12 13:44:15;;;;;;;26.17;11.25;;;5.20;99.90;;;;;;5082509;28;20071;-75
2022/01/12 13:47:09;;;;;;;25.40;10.27;;;5.20;99.90;;;;;;5111861;27;20132;-75
2022/01/12 13:49:35;;;;;;;27.85;10.65;;;5.20;99.90;;;;;;5114048;27;20454;-74
2022/01/12 13:52:07;;;;;;;26.23;10.90;;;5.30;99.90;;;;;;5083466;28;20127;-75
2022/01/12 13:54:39;;;;;;;28.55;10.88;;;5.30;99.90;;;;;;5079489;28;20041;-74
2022/01/12 13:57:07;;;;;;;24.00;10.43;;;5.20;99.90;;;;;;5083483;28;20044;-73
2022/01/12 13:59:45;;;;;;;36.63;11.85;;;5.30;99.90;;;;;;5080321;28;20518;-73